createdAt,value
2023-04-11T00:00:39.267Z,100444.38
2023-04-11T00:03:11.829Z,100439.06
2023-04-11T00:05:41.758Z,100437.31
2023-04-11T00:08:11.730Z,100433.78
2023-04-11T00:10:42.412Z,100437.22
2023-04-11T00:13:13.312Z,100431.97
2023-04-11T00:15:43.392Z,100433.75
2023-04-11T00:18:15.806Z,100431.03
2023-04-11T00:20:45.618Z,100428.34
2023-04-11T00:23:15.677Z,100435.28
2023-04-11T00:25:45.594Z,100432.59
2023-04-11T00:28:15.578Z,100427.19
2023-04-11T00:30:45.414Z,100424.50
2023-04-11T00:33:18.853Z,100434.03
2023-04-11T00:35:48.719Z,100427.00
2023-04-11T00:38:18.608Z,100439.19
2023-04-11T00:40:49.937Z,100443.50
2023-04-11T00:43:19.784Z,100445.16
2023-04-11T00:45:50.334Z,100448.66
2023-04-11T00:48:24.527Z,100449.53
2023-04-11T00:50:54.333Z,100443.34
2023-04-11T00:53:25.362Z,100451.19
2023-04-11T00:55:55.308Z,100448.50
2023-04-11T00:58:25.134Z,100447.56
2023-04-11T01:00:54.967Z,100449.31
2023-04-11T01:03:28.271Z,100447.56
2023-04-11T01:05:58.678Z,100456.19
2023-04-11T01:08:29.412Z,100453.53
2023-04-11T01:10:59.439Z,100459.56
2023-04-11T01:13:29.458Z,100453.19
2023-04-11T01:15:59.392Z,100452.97
2023-04-11T01:18:31.811Z,100458.09
2023-04-11T01:21:01.811Z,100454.38
2023-04-11T01:23:36.071Z,100457.78
2023-04-11T01:26:05.913Z,100458.59
2023-04-11T01:28:35.749Z,100448.81
2023-04-11T01:31:06.299Z,100456.59
2023-04-11T01:33:36.225Z,100460.84
2023-04-11T01:36:06.204Z,100465.16
2023-04-11T01:38:38.730Z,100466.88
2023-04-11T01:41:11.332Z,100473.84
2023-04-11T01:43:41.240Z,100468.59
2023-04-11T01:46:13.242Z,100472.06
2023-04-11T01:48:43.271Z,100472.06
2023-04-11T01:51:13.194Z,100474.66
2023-04-11T01:53:47.471Z,100474.66
2023-04-11T01:56:17.824Z,100472.78
2023-04-11T01:58:47.685Z,100473.59
2023-04-11T02:01:20.143Z,100470.91
2023-04-11T02:03:50.082Z,100472.56
2023-04-11T02:06:20.195Z,100473.38
2023-04-11T02:08:52.825Z,100472.41
2023-04-11T02:11:22.757Z,100480.19
2023-04-11T02:13:53.090Z,100475.78
2023-04-11T02:16:26.145Z,100470.44
2023-04-11T02:18:59.421Z,100476.47
2023-04-11T02:21:29.506Z,100475.59
2023-04-11T02:24:02.221Z,100479.03
2023-04-11T02:26:32.121Z,100479.75
2023-04-11T02:29:01.956Z,100476.97
2023-04-11T02:31:32.251Z,100479.50
2023-04-11T02:34:02.113Z,100477.69
2023-04-11T02:36:31.945Z,100482.03
2023-04-11T02:39:04.438Z,100474.16
2023-04-11T02:41:42.668Z,100469.78
2023-04-11T02:44:13.946Z,100477.59
2023-04-11T02:46:43.797Z,100484.50
2023-04-11T02:49:13.724Z,100479.19
2023-04-11T02:51:43.629Z,100481.72
2023-04-11T02:54:16.042Z,100485.22
2023-04-11T02:56:46.282Z,100475.53
2023-04-11T02:59:16.121Z,100483.41
2023-04-11T03:01:46.016Z,100480.69
2023-04-11T03:04:15.942Z,100480.59
2023-04-11T03:06:45.819Z,100477.97
2023-04-11T03:09:18.218Z,100486.75
2023-04-11T03:11:48.086Z,100491.94
2023-04-11T03:14:21.134Z,100491.03
2023-04-11T03:16:50.961Z,100491.00
2023-04-11T03:19:20.739Z,100493.63
2023-04-11T03:21:50.582Z,100488.38
2023-04-11T03:24:23.011Z,100491.94
2023-04-11T03:26:52.862Z,100494.56
2023-04-11T03:29:22.674Z,100493.72
2023-04-11T03:31:52.546Z,100500.75
2023-04-11T03:34:22.356Z,100493.72
2023-04-11T03:36:52.229Z,100500.75
2023-04-11T03:39:24.750Z,100505.16
2023-04-11T03:41:55.411Z,100499.03
2023-04-11T03:44:25.220Z,100501.69
2023-04-11T03:46:55.303Z,100510.41
2023-04-11T03:49:25.641Z,100508.63
2023-04-11T03:51:55.657Z,100499.84
2023-04-11T03:54:28.025Z,100505.09
2023-04-11T03:56:58.291Z,100507.69
2023-04-11T03:59:28.087Z,100512.81
2023-04-11T04:02:00.379Z,100515.41
2023-04-11T04:04:30.464Z,100506.66
2023-04-11T04:07:01.880Z,100510.16
2023-04-11T04:09:34.301Z,100510.09
2023-04-11T04:12:04.131Z,100513.50
2023-04-11T04:14:33.935Z,100512.63
2023-04-11T04:17:03.749Z,100510.94
2023-04-11T04:19:33.600Z,100517.09
2023-04-11T04:22:04.155Z,100517.97
2023-04-11T04:24:38.646Z,100501.34
2023-04-11T04:27:10.429Z,100507.38
2023-04-11T04:29:47.878Z,100503.81
2023-04-11T04:32:24.216Z,100509.03
2023-04-11T04:34:58.095Z,100514.22
2023-04-11T04:37:29.196Z,100508.97
2023-04-11T04:40:08.045Z,100508.97
2023-04-11T04:42:41.607Z,100509.84
2023-04-11T04:45:12.666Z,100526.47
2023-04-11T04:47:42.549Z,100523.75
2023-04-11T04:50:13.364Z,100524.59
2023-04-11T04:52:43.220Z,100517.47
2023-04-11T04:55:17.591Z,100512.13
2023-04-11T04:57:47.402Z,100517.25
2023-04-11T05:00:17.815Z,100525.06
2023-04-11T05:02:48.168Z,100531.09
2023-04-11T05:05:18.337Z,100524.91
2023-04-11T05:07:48.618Z,100529.25
2023-04-11T05:10:23.422Z,100531.03
2023-04-11T05:12:53.715Z,100523.22
2023-04-11T05:15:23.771Z,100540.88
2023-04-11T05:17:53.684Z,100538.34
2023-04-11T05:20:29.501Z,100537.50
2023-04-11T05:22:59.395Z,100533.00
2023-04-11T05:25:31.883Z,100535.47
2023-04-11T05:28:01.926Z,100540.47
2023-04-11T05:30:33.437Z,100547.34
2023-04-11T05:33:04.582Z,100554.34
2023-04-11T05:35:34.443Z,100560.47
2023-04-11T05:38:05.175Z,100548.84
2023-04-11T05:40:37.694Z,100561.69
2023-04-11T05:43:10.853Z,100599.84
2023-04-11T05:45:40.747Z,100594.53
2023-04-11T05:48:19.959Z,100603.06
2023-04-11T05:50:49.807Z,100600.16
2023-04-11T05:53:19.743Z,100602.50
2023-04-11T05:55:52.172Z,100598.78
2023-04-11T05:58:22.041Z,100609.28
2023-04-11T06:00:51.857Z,100608.44
2023-04-11T06:03:24.856Z,100610.25
2023-04-11T06:05:54.905Z,100622.56
2023-04-11T06:08:24.736Z,100626.97
2023-04-11T06:10:57.139Z,100625.22
2023-04-11T06:13:26.946Z,100634.97
2023-04-11T06:15:56.809Z,100628.81
2023-04-11T06:18:26.652Z,100633.06
2023-04-11T06:20:56.970Z,100645.09
2023-04-11T06:23:26.802Z,100641.56
2023-04-11T06:25:59.188Z,100648.38
2023-04-11T06:28:29.165Z,100648.31
2023-04-11T06:30:59.791Z,100651.66
2023-04-11T06:33:29.702Z,100654.16
2023-04-11T06:35:59.764Z,100653.19
2023-04-11T06:38:31.228Z,100654.06
2023-04-11T06:41:04.482Z,100656.81
2023-04-11T06:43:34.586Z,100663.88
2023-04-11T06:46:04.453Z,100658.72
2023-04-11T06:48:34.269Z,100663.19
2023-04-11T06:51:04.140Z,100672.06
2023-04-11T06:53:33.986Z,100670.44
2023-04-11T06:56:06.897Z,100674.09
2023-04-11T06:58:36.925Z,100685.59
2023-04-11T07:01:07.060Z,100684.81
2023-04-11T07:03:37.202Z,100669.19
2023-04-11T07:06:07.623Z,100689.38
2023-04-11T07:08:38.436Z,100691.25
2023-04-11T07:11:11.552Z,100691.31
2023-04-11T07:13:45.229Z,100701.88
2023-04-11T07:16:15.376Z,100694.94
2023-04-11T07:18:46.423Z,100703.75
2023-04-11T07:21:16.733Z,100710.06
2023-04-11T07:23:46.588Z,100710.06
2023-04-11T07:26:19.034Z,100712.88
2023-04-11T07:28:48.920Z,100719.09
2023-04-11T07:31:21.666Z,100726.25
2023-04-11T07:33:56.409Z,100713.25
2023-04-11T07:36:26.754Z,100725.63
2023-04-11T07:38:56.704Z,100732.84
2023-04-11T07:41:32.983Z,100727.06
2023-04-11T07:44:02.896Z,100742.22
2023-04-11T07:46:32.722Z,100737.34
2023-04-11T07:49:02.585Z,100738.50
2023-04-11T07:51:33.316Z,100742.56
2023-04-11T07:54:03.524Z,100732.56
2023-04-11T07:56:36.040Z,100733.16
2023-04-11T07:59:05.892Z,100734.53
2023-04-11T08:01:35.981Z,100740.31
2023-04-11T08:04:06.472Z,100747.75
2023-04-11T08:06:36.557Z,100752.50
2023-04-11T08:09:06.830Z,100751.94
2023-04-11T08:11:39.741Z,100766.06
2023-04-11T08:14:09.534Z,100761.66
2023-04-11T08:16:39.425Z,100775.63
2023-04-11T08:19:10.681Z,100779.75
2023-04-11T08:21:41.438Z,100783.81
2023-04-11T08:24:14.040Z,100779.03
2023-04-11T08:26:46.514Z,100777.81
2023-04-11T08:29:16.330Z,100786.22
2023-04-11T08:31:47.102Z,100787.84
2023-04-11T08:34:17.345Z,100793.97
2023-04-11T08:36:47.275Z,100783.75
2023-04-11T08:39:17.249Z,100783.31
2023-04-11T08:41:53.817Z,100791.63
2023-04-11T08:44:23.700Z,100776.78
2023-04-11T08:46:53.529Z,100813.25
2023-04-11T08:49:23.341Z,100813.50
2023-04-11T08:51:58.212Z,100822.44
2023-04-11T08:54:28.036Z,100828.94
2023-04-11T08:57:00.544Z,100830.31
2023-04-11T08:59:30.369Z,100823.16
2023-04-11T09:02:10.305Z,100825.28
2023-04-11T09:04:45.392Z,100825.13
2023-04-11T09:07:15.908Z,100821.50
2023-04-11T09:09:46.019Z,100821.97
2023-04-11T09:12:18.593Z,100824.75
2023-04-11T09:14:52.295Z,100822.09
2023-04-11T09:17:22.143Z,100823.88
2023-04-11T09:19:52.006Z,100825.81
2023-04-11T09:22:21.963Z,100836.59
2023-04-11T09:25:06.835Z,100835.06
2023-04-11T09:27:39.385Z,100841.66
2023-04-11T09:30:22.895Z,100834.91
2023-04-11T09:32:53.442Z,100835.16
2023-04-11T09:35:31.091Z,100832.19
2023-04-11T09:38:03.858Z,100816.16
2023-04-11T09:40:45.703Z,100835.13
2023-04-11T09:43:19.972Z,100843.31
2023-04-11T09:45:54.450Z,100833.69
2023-04-11T09:48:35.553Z,100832.81
2023-04-11T09:51:21.054Z,100832.81
2023-04-11T09:54:04.362Z,100842.44
2023-04-11T09:56:35.098Z,100841.66
2023-04-11T09:59:08.060Z,100853.28
2023-04-11T10:01:40.242Z,100845.84
2023-04-11T10:04:11.059Z,100847.13
2023-04-11T10:06:48.225Z,100848.19
2023-04-11T10:09:18.845Z,100864.09
2023-04-11T10:11:49.010Z,100854.50
2023-04-11T10:14:48.818Z,100860.72
2023-04-11T10:17:23.216Z,100870.25
2023-04-11T10:19:57.843Z,100863.00
2023-04-11T10:22:57.645Z,100872.41
2023-04-11T10:25:28.262Z,100872.28
2023-04-11T10:28:01.725Z,100870.78
2023-04-11T10:31:05.729Z,100870.25
2023-04-11T10:33:37.036Z,100864.41
2023-04-11T10:36:10.734Z,100886.50
2023-04-11T10:38:51.454Z,100888.19
2023-04-11T10:41:28.737Z,100892.50
2023-04-11T10:44:18.622Z,100886.53
2023-04-11T10:46:54.286Z,100866.59
2023-04-11T10:49:52.475Z,100915.84
2023-04-11T10:52:24.848Z,100913.28
2023-04-11T10:54:56.380Z,100906.03
2023-04-11T10:57:26.222Z,100908.81
2023-04-11T11:00:09.382Z,100914.31
2023-04-11T11:02:45.703Z,100906.78
2023-04-11T11:05:21.513Z,100935.63
2023-04-11T11:07:53.069Z,100917.94
2023-04-11T11:10:42.310Z,100936.94
2023-04-11T11:13:12.966Z,100942.09
2023-04-11T11:15:51.487Z,100948.16
2023-04-11T11:18:24.581Z,100937.50
2023-04-11T11:20:58.213Z,100952.66
2023-04-11T11:23:28.025Z,100939.94
2023-04-11T11:25:58.554Z,100915.72
2023-04-11T11:31:00.119Z,100952.25
2023-04-11T11:33:32.632Z,100957.00
2023-04-11T11:36:05.182Z,100965.13
2023-04-11T11:38:35.157Z,100964.28
2023-04-11T11:41:07.967Z,100955.34
2023-04-11T11:43:40.922Z,100966.75
2023-04-11T11:46:15.084Z,100966.88
2023-04-11T11:49:02.337Z,100958.44
2023-04-11T11:51:44.057Z,100964.63
2023-04-11T11:54:15.244Z,100970.69
2023-04-11T11:56:53.185Z,100977.75
2023-04-11T11:59:29.509Z,100989.44
2023-04-11T12:01:59.487Z,100980.94
2023-04-11T12:04:32.136Z,100983.75
2023-04-11T12:07:12.135Z,100980.34
2023-04-11T12:09:43.076Z,100989.97
2023-04-11T12:12:13.038Z,101001.22
2023-04-11T12:14:43.165Z,100996.63
2023-04-11T12:17:13.021Z,100985.06
2023-04-11T12:19:48.050Z,101007.69
2023-04-11T12:22:18.655Z,101008.34
2023-04-11T12:24:48.701Z,101019.63
2023-04-11T12:27:18.541Z,101017.00
2023-04-11T12:29:48.488Z,101013.59
2023-04-11T12:32:18.387Z,101010.34
2023-04-11T12:34:51.392Z,101020.16
2023-04-11T12:37:21.630Z,101029.81
2023-04-11T12:39:51.832Z,101022.06
2023-04-11T12:42:26.504Z,101032.03
2023-04-11T12:44:57.386Z,101032.28
2023-04-11T12:47:27.313Z,101036.63
2023-04-11T12:49:59.842Z,101044.44
2023-04-11T12:52:29.802Z,101040.75
2023-04-11T12:55:00.213Z,101062.63
2023-04-11T12:57:30.007Z,101045.06
2023-04-11T12:59:59.861Z,101055.59
2023-04-11T13:02:35.467Z,101047.63
2023-04-11T13:05:15.838Z,101046.78
2023-04-11T13:07:47.325Z,101053.94
2023-04-11T13:10:17.412Z,101055.06
2023-04-11T13:12:48.758Z,101054.44
2023-04-11T13:15:19.413Z,101066.72
2023-04-11T13:17:49.223Z,101064.03
2023-04-11T13:20:21.963Z,101063.22
2023-04-11T13:22:55.244Z,101057.16
2023-04-11T13:25:25.049Z,101063.28
2023-04-11T13:27:54.849Z,101072.88
2023-04-11T13:30:25.128Z,101078.06
2023-04-11T13:32:55.354Z,101079.63
2023-04-11T13:35:32.502Z,101086.50
2023-04-11T13:38:02.861Z,101088.06
2023-04-11T13:40:32.665Z,101092.22
2023-04-11T13:43:02.513Z,101092.22
2023-04-11T13:45:32.389Z,101095.03
2023-04-11T13:48:02.308Z,101091.69
2023-04-11T13:50:37.192Z,101093.75
2023-04-11T13:53:07.139Z,101090.38
2023-04-11T13:55:36.950Z,101104.31
2023-04-11T13:58:07.549Z,101100.38
2023-04-11T14:00:38.107Z,101108.72
2023-04-11T14:03:08.113Z,101104.94
2023-04-11T14:05:40.810Z,101107.41
2023-04-11T14:08:10.939Z,101106.25
2023-04-11T14:10:40.871Z,101104.13
2023-04-11T14:13:11.677Z,101104.06
2023-04-11T14:15:41.598Z,101098.16
2023-04-11T14:18:13.710Z,101096.81
2023-04-11T14:20:46.206Z,101100.72
2023-04-11T14:23:16.806Z,101107.25
2023-04-11T14:25:46.652Z,101097.91
2023-04-11T14:28:18.134Z,101101.75
2023-04-11T14:30:48.060Z,101113.44
2023-04-11T14:33:18.030Z,101111.75
2023-04-11T14:35:50.637Z,101113.41
2023-04-11T14:38:24.357Z,101115.88
2023-04-11T14:40:54.314Z,101101.66
2023-04-11T14:43:24.156Z,101101.75
2023-04-11T14:45:58.322Z,101105.25
2023-04-11T14:48:31.345Z,101113.03
2023-04-11T14:51:05.718Z,101100.63
2023-04-11T14:53:36.018Z,101107.56
2023-04-11T14:56:07.751Z,101106.78
2023-04-11T14:58:37.619Z,101104.31
2023-04-11T15:01:10.096Z,101106.16
2023-04-11T15:03:40.092Z,101105.44
2023-04-11T15:06:13.393Z,101110.00
2023-04-11T15:08:43.356Z,101109.28
2023-04-11T15:11:14.808Z,101114.63
2023-04-11T15:13:48.088Z,101104.97
2023-04-11T15:16:19.362Z,101104.91
2023-04-11T15:18:50.421Z,101110.88
2023-04-11T15:21:22.973Z,101109.03
2023-04-11T15:23:53.291Z,101102.81
2023-04-11T15:26:23.276Z,101113.25
2023-04-11T15:28:53.134Z,101113.16
2023-04-11T15:31:28.263Z,101113.03
2023-04-11T15:34:06.052Z,101116.44
2023-04-11T15:36:39.884Z,101120.00
2023-04-11T15:39:13.804Z,101111.16
2023-04-11T15:41:44.291Z,101108.44
2023-04-11T15:44:15.662Z,101106.69
2023-04-11T15:46:47.240Z,101109.34
2023-04-11T15:49:18.804Z,101113.81
2023-04-11T15:51:51.363Z,101106.03
2023-04-11T15:54:21.220Z,101112.19
2023-04-11T15:56:50.987Z,101107.66
2023-04-11T15:59:20.986Z,101106.72
2023-04-11T16:01:51.702Z,101107.63
2023-04-11T16:04:23.597Z,101108.50
2023-04-11T16:06:57.109Z,101109.31
2023-04-11T16:09:27.594Z,101103.97
2023-04-11T16:11:57.773Z,101089.97
2023-04-11T16:14:27.859Z,101097.03
2023-04-11T16:16:57.749Z,101093.44
2023-04-11T16:19:27.543Z,101094.28
2023-04-11T16:21:59.942Z,101088.88
2023-04-11T16:24:31.659Z,101082.59
2023-04-11T16:27:01.617Z,101083.38
2023-04-11T16:29:32.112Z,101083.38
2023-04-11T16:32:02.166Z,101084.06
2023-04-11T16:34:32.201Z,101083.97
2023-04-11T16:37:04.956Z,101074.16
2023-04-11T16:39:38.684Z,101084.50
2023-04-11T16:42:08.595Z,101080.97
2023-04-11T16:44:41.506Z,101079.16
2023-04-11T16:47:11.761Z,101069.66
2023-04-11T16:49:41.600Z,101067.13
2023-04-11T16:52:14.046Z,101062.00
2023-04-11T16:54:44.408Z,101061.13
2023-04-11T16:57:14.448Z,101063.78
2023-04-11T16:59:44.621Z,101061.31
2023-04-11T17:02:14.556Z,101045.69
2023-04-11T17:04:44.506Z,101051.94
2023-04-11T17:07:19.102Z,101051.03
2023-04-11T17:09:50.263Z,101051.78
2023-04-11T17:12:20.344Z,101057.72
2023-04-11T17:14:50.148Z,101058.59
2023-04-11T17:17:20.863Z,101056.94
2023-04-11T17:19:51.626Z,101057.78
2023-04-11T17:22:24.070Z,101057.63
2023-04-11T17:24:53.990Z,101057.53
2023-04-11T17:27:23.795Z,101065.34
2023-04-11T17:29:53.609Z,101051.22
2023-04-11T17:32:23.482Z,101058.16
2023-04-11T17:34:54.171Z,101051.94
2023-04-11T17:37:26.937Z,101052.72
2023-04-11T17:39:56.834Z,101049.16
2023-04-11T17:42:26.803Z,101050.88
2023-04-11T17:44:58.909Z,101049.06
2023-04-11T17:47:31.306Z,101051.50
2023-04-11T17:50:01.273Z,101051.47
2023-04-11T17:52:33.870Z,101040.97
2023-04-11T17:55:03.756Z,101044.56
2023-04-11T17:57:34.877Z,101035.81
2023-04-11T18:00:19.661Z,101040.25
2023-04-11T18:02:51.372Z,101041.09
2023-04-11T18:05:25.016Z,101045.47
2023-04-11T18:07:59.540Z,101037.53
2023-04-11T18:10:31.536Z,101050.63
2023-04-11T18:13:01.817Z,101047.91
2023-04-11T18:15:33.307Z,101044.38
2023-04-11T18:18:05.468Z,101044.31
2023-04-11T18:20:35.296Z,101043.31
2023-04-11T18:23:07.870Z,101031.84
2023-04-11T18:25:40.586Z,101035.25
2023-04-11T18:28:10.404Z,101029.09
2023-04-11T18:30:40.327Z,101028.16
2023-04-11T18:33:10.240Z,101029.81
2023-04-11T18:35:40.181Z,101020.97
2023-04-11T18:38:15.667Z,101010.28
2023-04-11T18:40:46.151Z,101010.13
2023-04-11T18:43:16.170Z,101003.69
2023-04-11T18:45:47.042Z,101018.41
2023-04-11T18:48:16.953Z,101009.34
2023-04-11T18:50:52.758Z,101010.03
2023-04-11T18:53:26.115Z,101006.22
2023-04-11T18:55:55.978Z,101010.28
2023-04-11T18:58:27.071Z,101004.81
2023-04-11T19:01:06.612Z,101008.09
2023-04-11T19:03:44.685Z,101003.34
2023-04-11T19:06:14.623Z,100992.63
2023-04-11T19:08:47.828Z,100995.00
2023-04-11T19:11:18.449Z,100995.75
2023-04-11T19:13:48.431Z,100989.34
2023-04-11T19:16:18.480Z,100985.56
2023-04-11T19:18:48.342Z,100985.38
2023-04-11T19:21:18.143Z,100984.38
2023-04-11T19:23:50.729Z,100974.53
2023-04-11T19:26:21.786Z,100968.09
2023-04-11T19:28:51.592Z,100967.91
2023-04-11T19:31:21.456Z,100972.09
2023-04-11T19:33:52.254Z,100968.38
2023-04-11T19:36:22.487Z,100961.13
2023-04-11T19:38:55.082Z,100964.50
2023-04-11T19:41:24.926Z,100956.34
2023-04-11T19:43:55.056Z,100955.34
2023-04-11T19:46:25.166Z,100953.38
2023-04-11T19:48:55.215Z,100950.56
2023-04-11T19:51:25.059Z,100948.56
2023-04-11T19:53:57.634Z,100952.75
2023-04-11T19:56:27.644Z,100940.31
2023-04-11T19:58:57.480Z,100937.44
2023-04-11T20:01:28.651Z,100937.13
2023-04-11T20:03:59.223Z,100941.28
2023-04-11T20:06:29.721Z,100924.44
2023-04-11T20:09:02.111Z,100923.41
2023-04-11T20:11:33.279Z,100925.03
2023-04-11T20:14:03.122Z,100916.13
2023-04-11T20:16:32.965Z,100919.50
2023-04-11T20:19:02.802Z,100918.53
2023-04-11T20:21:32.608Z,100912.38
2023-04-11T20:24:06.009Z,100900.91
2023-04-11T20:26:35.834Z,100905.94
2023-04-11T20:29:06.645Z,100898.72
2023-04-11T20:31:36.545Z,100888.94
2023-04-11T20:34:06.407Z,100881.75
2023-04-11T20:36:37.600Z,100878.97
2023-04-11T20:39:17.048Z,100870.97
2023-04-11T20:41:46.867Z,100870.78
2023-04-11T20:44:18.093Z,100875.06
2023-04-11T20:46:48.234Z,100859.16
2023-04-11T20:49:18.369Z,100856.47
2023-04-11T20:51:48.642Z,100854.53
2023-04-11T20:54:21.099Z,100844.00
2023-04-11T20:56:52.577Z,100841.31
2023-04-11T20:59:22.395Z,100833.38
2023-04-11T21:01:53.784Z,100823.66
2023-04-11T21:04:24.203Z,100815.75
2023-04-11T21:06:54.091Z,100813.13
2023-04-11T21:09:30.394Z,100808.78
2023-04-11T21:12:00.352Z,100806.06
2023-04-11T21:14:33.097Z,100812.06
2023-04-11T21:17:02.953Z,100798.94
2023-04-11T21:19:32.814Z,100802.44
2023-04-11T21:22:05.680Z,100797.22
2023-04-11T21:24:38.397Z,100786.66
2023-04-11T21:27:08.295Z,100784.88
2023-04-11T21:29:38.098Z,100779.50
2023-04-11T21:32:07.984Z,100776.00
2023-04-11T21:34:37.782Z,100770.59
2023-04-11T21:37:07.649Z,100765.31
2023-04-11T21:39:40.979Z,100753.00
2023-04-11T21:42:13.086Z,100753.81
2023-04-11T21:44:42.849Z,100740.66
2023-04-11T21:47:12.649Z,100743.97
2023-04-11T21:49:42.439Z,100735.16
2023-04-11T21:52:12.372Z,100738.59
2023-04-11T21:54:45.697Z,100739.38
2023-04-11T21:57:15.661Z,100729.66
2023-04-11T21:59:45.606Z,100724.31
2023-04-11T22:02:15.663Z,100719.81
2023-04-11T22:05:01.646Z,100712.66
2023-04-11T22:07:39.284Z,100713.50
2023-04-11T22:10:12.935Z,100711.78
2023-04-11T22:12:45.895Z,100714.44
2023-04-11T22:15:18.536Z,100712.88
2023-04-11T22:17:50.857Z,100698.94
2023-04-11T22:20:21.281Z,100692.88
2023-04-11T22:22:51.080Z,100683.31
2023-04-11T22:25:24.133Z,100685.91
2023-04-11T22:27:56.503Z,100675.44
2023-04-11T22:30:26.411Z,100667.53
2023-04-11T22:32:56.733Z,100657.94
2023-04-11T22:35:27.826Z,100650.03
2023-04-11T22:38:00.953Z,100639.63
2023-04-11T22:40:39.094Z,100634.44
2023-04-11T22:43:09.978Z,100635.34
2023-04-11T22:45:40.296Z,100635.34
2023-04-11T22:48:10.226Z,100620.47
2023-04-11T22:50:40.815Z,100624.81
2023-04-11T22:53:14.266Z,100619.63
2023-04-11T22:55:46.865Z,100606.66
2023-04-11T22:58:16.814Z,100605.84
2023-04-11T23:00:47.730Z,100594.66
2023-04-11T23:03:18.827Z,100596.53
2023-04-11T23:05:48.923Z,100589.56
2023-04-11T23:08:18.774Z,100601.00
2023-04-11T23:10:51.221Z,100586.22
2023-04-11T23:13:21.014Z,100582.78
2023-04-11T23:15:50.962Z,100577.66
2023-04-11T23:18:20.860Z,100565.53
2023-04-11T23:20:51.037Z,100561.25
2023-04-11T23:23:20.993Z,100553.44
2023-04-11T23:25:53.432Z,100547.31
2023-04-11T23:28:24.343Z,100542.94
2023-04-11T23:30:54.147Z,100542.94
2023-04-11T23:33:25.820Z,100540.34
2023-04-11T23:35:56.178Z,100532.56
2023-04-11T23:38:26.421Z,100530.84
2023-04-11T23:40:58.886Z,100522.09
2023-04-11T23:43:29.509Z,100520.44
2023-04-11T23:45:59.676Z,100502.22
2023-04-11T23:48:29.523Z,100496.13
2023-04-11T23:50:59.328Z,100493.50
2023-04-11T23:53:29.130Z,100485.75
2023-04-11T23:56:01.603Z,100480.53
2023-04-11T23:58:31.474Z,100476.19
